Brandonville, West Virginia
Current Conditions -  °F | °C
As of 2:53 PM on Thursday 18 Dec 2014 (Local Time) from KMGW Reporting Station
Overcast Overcast  
Wind Chill: 29°   Ceiling: 2100
Heat Index: 29°   Visibility: 10mi
Dew Point: 17°   Wind: 3mph
Humidity: 61%   Direction: 230°SW
Pressure: 30.15"   Gusts: NA
Location:  39.6431°N, 79.6244°W
Report Text: KMGW 181953Z 23003KT 10SM OVC021 M02/M08 A3015 RMK AO2 SLP222 T10171083
Loading
Personal Weather Stations






























Interactive Weather Map New forecast layout! Learn more

10-Day Weather Forecast

Advertisements
Track Severe Weather on mobile